Time;durP1;ratioP1;P1;durP2;ratioP2;P2;SDS_P1;SDS_P2;PMS_P1;PMS_P2;Temp;Humidity;BMP_temperature;BMP_pressure;BME280_temperature;BME280_humidity;BME280_pressure;Samples;Min_cycle;Max_cycle;Signal;HPM_P1;HPM_P2
2020/12/31 00:02:05;;;;;;;26.93;19.05;;;;;;;6.09;100.00;99765.73;1858149;77;21566;-70
2020/12/31 00:04:33;;;;;;;30.97;19.82;;;;;;;6.11;100.00;99763.92;1858173;77;21522;-70
2020/12/31 00:07:02;;;;;;;25.40;18.82;;;;;;;6.14;100.00;99771.55;1858199;77;21593;-71
2020/12/31 00:09:31;;;;;;;27.27;19.07;;;;;;;6.16;100.00;99775.75;1858190;77;20977;-70
2020/12/31 00:12:00;;;;;;;29.65;20.08;;;;;;;6.21;100.00;99771.23;1858238;77;22112;-71
2020/12/31 00:14:29;;;;;;;28.62;19.35;;;;;;;6.25;100.00;99774.08;1858162;77;21499;-70
2020/12/31 00:16:57;;;;;;;33.15;20.23;;;;;;;6.28;100.00;99775.24;1858152;77;20933;-70
2020/12/31 00:19:25;;;;;;;25.90;18.55;;;;;;;6.30;100.00;99768.71;1858188;77;21487;-70
2020/12/31 00:21:54;;;;;;;30.32;19.85;;;;;;;6.33;100.00;99767.30;1858378;77;21552;-71
2020/12/31 00:24:22;;;;;;;32.23;20.80;;;;;;;6.36;100.00;99773.63;1858299;77;22087;-70
2020/12/31 00:26:51;;;;;;;30.40;20.15;;;;;;;6.39;100.00;99776.08;1858293;77;21610;-70
2020/12/31 00:29:19;;;;;;;29.12;18.37;;;;;;;6.41;100.00;99770.81;1858311;77;21475;-71
2020/12/31 00:31:47;;;;;;;32.50;20.40;;;;;;;6.42;100.00;99771.20;1858361;77;21457;-70
2020/12/31 00:34:15;;;;;;;34.95;21.55;;;;;;;6.45;100.00;99768.48;1853736;77;21459;-69
2020/12/31 00:36:46;;;;;;;30.43;20.23;;;;;;;6.45;100.00;99760.27;1847610;77;21178;-70
2020/12/31 00:39:14;;;;;;;33.53;19.35;;;;;;;6.47;100.00;99767.52;1822460;77;20976;-70
2020/12/31 00:41:44;;;;;;;36.28;17.25;;;;;;;6.48;100.00;99768.36;1847575;77;20993;-70
2020/12/31 00:44:14;;;;;;;33.45;19.85;;;;;;;6.49;100.00;99773.46;1847496;77;20993;-65
2020/12/31 00:46:42;;;;;;;32.88;19.32;;;;;;;6.48;100.00;99766.61;1847559;77;21606;-65
2020/12/31 00:49:11;;;;;;;35.30;19.95;;;;;;;6.51;100.00;99770.81;1847583;77;22310;-65
2020/12/31 00:51:39;;;;;;;35.05;19.92;;;;;;;6.52;100.00;99766.86;1847608;77;21483;-65
2020/12/31 00:54:08;;;;;;;29.80;19.30;;;;;;;6.54;100.00;99771.97;1847520;77;21479;-65
2020/12/31 00:56:36;;;;;;;38.98;20.50;;;;;;;6.54;100.00;99771.97;1847527;77;21535;-66
2020/12/31 00:59:04;;;;;;;39.27;20.55;;;;;;;6.56;100.00;99771.45;1847583;77;21569;-66
2020/12/31 01:01:34;;;;;;;39.50;20.32;;;;;;;6.57;100.00;99784.77;1847519;77;22130;-66
2020/12/31 01:04:02;;;;;;;38.90;20.23;;;;;;;6.58;100.00;99781.28;1847586;77;21013;-65
2020/12/31 01:06:37;;;;;;;37.40;20.30;;;;;;;6.59;100.00;99781.67;1847576;77;21444;-65
2020/12/31 01:09:08;;;;;;;44.10;22.30;;;;;;;6.61;100.00;99788.91;1847695;77;20977;-70
2020/12/31 01:11:37;;;;;;;36.50;20.30;;;;;;;6.61;100.00;99787.16;1847597;77;21601;-71
2020/12/31 01:14:06;;;;;;;40.75;23.15;;;;;;;6.61;100.00;99794.08;1847516;77;21396;-70
2020/12/31 01:16:34;;;;;;;40.85;22.35;;;;;;;6.60;100.00;99788.52;1847577;77;21538;-71
2020/12/31 01:19:03;;;;;;;40.25;22.60;;;;;;;6.59;100.00;99783.80;1847631;77;21518;-70
2020/12/31 01:21:31;;;;;;;40.65;22.90;;;;;;;6.59;100.00;99785.55;1847521;77;21613;-67
2020/12/31 01:24:00;;;;;;;39.60;22.42;;;;;;;6.56;100.00;99777.92;1847558;77;21458;-70
2020/12/31 01:26:35;;;;;;;45.30;23.45;;;;;;;6.54;100.00;99789.63;1847541;77;21179;-65
2020/12/31 01:29:04;;;;;;;40.30;22.77;;;;;;;6.55;100.00;99798.22;1847616;77;21025;-66
2020/12/31 01:31:33;;;;;;;49.38;25.88;;;;;;;6.53;100.00;99790.98;1847549;77;21538;-66
2020/12/31 01:34:01;;;;;;;37.85;21.37;;;;;;;6.53;100.00;99789.69;1849317;77;21561;-69
2020/12/31 01:36:30;;;;;;;43.85;24.23;;;;;;;6.53;100.00;99793.57;1858295;77;20981;-69
2020/12/31 01:38:59;;;;;;;46.68;23.62;;;;;;;6.52;100.00;99778.50;1858321;77;21927;-70
2020/12/31 01:41:27;;;;;;;49.05;23.90;;;;;;;6.51;100.00;99785.88;1858226;77;21486;-68
2020/12/31 01:44:10;;;;;;;36.05;21.37;;;;;;;6.51;100.00;99780.70;1858298;77;21495;-67
2020/12/31 01:46:46;;;;;;;42.60;22.35;;;;;;;6.50;100.00;99774.30;1858249;77;20969;-66
2020/12/31 01:49:17;;;;;;;38.15;22.73;;;;;;;6.48;100.00;99776.95;1858463;77;20944;-68
2020/12/31 01:51:47;;;;;;;39.42;21.82;;;;;;;6.49;100.00;99777.80;1858303;77;21147;-66
2020/12/31 01:54:18;;;;;;;41.35;21.95;;;;;;;6.48;100.00;99767.90;1858287;77;20993;-66
2020/12/31 01:56:47;;;;;;;41.83;21.15;;;;;;;6.48;100.00;99767.90;1858272;77;21009;-66
2020/12/31 01:59:16;;;;;;;39.60;22.45;;;;;;;6.48;100.00;99769.19;1858221;77;21513;-67
2020/12/31 02:01:47;;;;;;;39.30;20.95;;;;;;;6.49;100.00;99765.70;1858275;77;20913;-66
2020/12/31 02:04:16;;;;;;;38.67;21.30;;;;;;;6.49;100.00;99760.98;1858230;77;21097;-67
2020/12/31 02:06:44;;;;;;;37.67;21.52;;;;;;;6.48;100.00;99761.44;1858213;77;21554;-66
2020/12/31 02:09:12;;;;;;;38.23;20.88;;;;;;;6.49;100.00;99767.45;1858253;77;21535;-65
2020/12/31 02:11:42;;;;;;;36.33;21.00;;;;;;;6.49;100.00;99764.41;1858170;77;20996;-65
2020/12/31 02:14:10;;;;;;;31.52;20.10;;;;;;;6.51;100.00;99766.48;1858330;77;21483;-69
2020/12/31 02:16:40;;;;;;;35.00;20.62;;;;;;;6.52;100.00;99767.31;1858264;77;22305;-69
2020/12/31 02:19:13;;;;;;;37.78;20.50;;;;;;;6.52;100.00;99761.69;1858165;77;20993;-69
2020/12/31 02:21:49;;;;;;;35.03;19.42;;;;;;;6.54;100.00;99765.05;1858268;77;21021;-70
2020/12/31 02:24:18;;;;;;;34.73;19.87;;;;;;;6.57;100.00;99765.37;1858285;77;20922;-66
2020/12/31 02:26:48;;;;;;;36.85;20.88;;;;;;;6.58;100.00;99770.93;1858276;77;20933;-67
2020/12/31 02:29:16;;;;;;;32.83;19.62;;;;;;;6.59;100.00;99768.73;1858218;77;21168;-66
2020/12/31 02:31:47;;;;;;;29.75;19.07;;;;;;;6.58;100.00;99771.77;1858192;77;20964;-66
2020/12/31 02:34:15;;;;;;;39.90;20.57;;;;;;;6.58;100.00;99770.48;1858158;77;21032;-65
2020/12/31 02:36:43;;;;;;;37.28;20.82;;;;;;;6.59;100.00;99768.73;1858144;77;21898;-65
2020/12/31 02:39:13;;;;;;;27.67;19.37;;;;;;;6.58;100.00;99758.84;1858144;77;20933;-66
2020/12/31 02:41:42;;;;;;;31.60;19.67;;;;;;;6.58;100.00;99760.13;1858230;77;21173;-66
2020/12/31 02:44:10;;;;;;;31.97;20.70;;;;;;;6.58;100.00;99758.00;1858193;77;21483;-66
2020/12/31 02:46:38;;;;;;;30.88;19.45;;;;;;;6.58;100.00;99760.13;1858245;77;21317;-68
2020/12/31 02:49:07;;;;;;;29.30;19.73;;;;;;;6.57;100.00;99758.45;1858143;76;20921;-66
2020/12/31 02:51:35;;;;;;;33.65;19.60;;;;;;;6.56;100.00;99753.34;1858227;77;21482;-66
2020/12/31 02:54:04;;;;;;;32.40;20.80;;;;;;;6.55;100.00;99747.33;1858205;77;21973;-66
2020/12/31 02:56:32;;;;;;;37.58;21.23;;;;;;;6.57;100.00;99753.73;1858129;77;21001;-66
2020/12/31 02:59:01;;;;;;;29.98;19.82;;;;;;;6.55;100.00;99741.31;1858217;76;21171;-68
2020/12/31 03:01:29;;;;;;;35.75;21.87;;;;;;;6.51;100.00;99749.66;1858174;77;21543;-66
2020/12/31 03:03:57;;;;;;;28.67;20.15;;;;;;;6.50;100.00;99757.48;1858216;77;21478;-66
2020/12/31 03:06:26;;;;;;;31.15;19.70;;;;;;;6.49;100.00;99746.75;1858251;77;21989;-66
2020/12/31 03:08:54;;;;;;;32.55;19.45;;;;;;;6.48;100.00;99750.25;1858185;77;21008;-66
2020/12/31 03:11:24;;;;;;;29.57;19.35;;;;;;;6.47;100.00;99748.56;1858183;77;21549;-66
2020/12/31 03:13:53;;;;;;;32.70;20.37;;;;;;;6.44;100.00;99753.42;1858140;77;20988;-67
2020/12/31 03:16:22;;;;;;;29.92;20.32;;;;;;;6.43;100.00;99755.62;1858190;77;21601;-65
2020/12/31 03:18:50;;;;;;;32.70;19.40;;;;;;;6.42;100.00;99755.69;1858317;77;22280;-67
2020/12/31 03:21:21;;;;;;;35.78;19.65;;;;;;;6.40;100.00;99757.05;1858139;77;21502;-66
2020/12/31 03:23:50;;;;;;;32.03;21.05;;;;;;;6.40;100.00;99754.45;1858246;77;21471;-65
2020/12/31 03:26:18;;;;;;;33.92;20.60;;;;;;;6.41;100.00;99759.17;1858159;77;21464;-67
2020/12/31 03:28:47;;;;;;;34.53;20.62;;;;;;;6.40;100.00;99763.51;1858168;77;21347;-66
2020/12/31 03:31:15;;;;;;;31.75;22.27;;;;;;;6.42;100.00;99754.39;1858193;77;22218;-65
2020/12/31 03:33:44;;;;;;;36.80;21.95;;;;;;;6.41;100.00;99756.14;1858103;77;21605;-65
2020/12/31 03:36:12;;;;;;;36.10;23.07;;;;;;;6.42;100.00;99749.22;1849467;77;21511;-65
2020/12/31 03:38:41;;;;;;;39.98;27.60;;;;;;;6.42;100.00;99747.92;1847413;77;21448;-65
2020/12/31 03:41:09;;;;;;;37.25;23.75;;;;;;;6.40;100.00;99740.23;1847448;77;21459;-70
2020/12/31 03:43:37;;;;;;;32.53;23.22;;;;;;;6.41;100.00;99746.25;1847551;77;22076;-70
2020/12/31 03:46:06;;;;;;;29.92;21.23;;;;;;;6.40;100.00;99747.99;1847385;77;21511;-69
2020/12/31 03:48:34;;;;;;;32.67;20.52;;;;;;;6.40;100.00;99749.28;1847406;77;21579;-65
2020/12/31 03:51:02;;;;;;;30.12;21.10;;;;;;;6.40;100.00;99735.55;1847389;77;21543;-66
2020/12/31 03:53:31;;;;;;;30.23;20.45;;;;;;;6.40;100.00;99744.11;1847422;77;21480;-65
2020/12/31 03:55:59;;;;;;;31.70;20.77;;;;;;;6.40;100.00;99738.13;1847628;77;22210;-65
2020/12/31 03:58:27;;;;;;;33.85;22.77;;;;;;;6.39;100.00;99739.88;1847574;77;21535;-65
2020/12/31 04:00:55;;;;;;;36.00;23.07;;;;;;;6.40;100.00;99749.77;1847602;77;21522;-65
2020/12/31 04:03:24;;;;;;;34.88;22.98;;;;;;;6.39;100.00;99740.33;1847572;77;21550;-65
2020/12/31 04:05:52;;;;;;;40.30;24.72;;;;;;;6.37;100.00;99737.81;1847632;77;20977;-65
2020/12/31 04:08:21;;;;;;;38.53;24.07;;;;;;;6.36;100.00;99741.30;1847581;77;22147;-66
2020/12/31 04:10:49;;;;;;;39.58;25.37;;;;;;;6.33;100.00;99745.31;1847577;77;21479;-65
2020/12/31 04:13:18;;;;;;;39.58;22.70;;;;;;;6.32;100.00;99743.18;1847592;77;21476;-65
2020/12/31 04:15:46;;;;;;;29.82;20.82;;;;;;;6.33;100.00;99737.55;1847508;77;21482;-65
2020/12/31 04:18:15;;;;;;;31.50;22.10;;;;;;;6.32;100.00;99738.01;1847611;77;21586;-65
2020/12/31 04:20:45;;;;;;;41.18;31.62;;;;;;;6.29;100.00;99734.26;1847595;77;22204;-65
2020/12/31 04:23:13;;;;;;;34.88;23.87;;;;;;;6.27;100.00;99731.35;1830469;78;21513;-65
2020/12/31 04:25:42;;;;;;;35.17;24.60;;;;;;;6.23;100.00;99734.97;1812639;79;21552;-65
2020/12/31 04:28:10;;;;;;;37.55;22.32;;;;;;;6.20;100.00;99739.82;1830439;78;21002;-65
2020/12/31 04:30:38;;;;;;;78.15;63.25;;;;;;;6.17;100.00;99736.52;1812664;79;20930;-65
2020/12/31 04:33:07;;;;;;;46.13;31.80;;;;;;;6.13;100.00;99732.39;1830530;78;22271;-64
2020/12/31 04:35:35;;;;;;;53.35;39.92;;;;;;;6.09;100.00;99729.55;1816654;78;21853;-65
2020/12/31 04:38:04;;;;;;;55.90;39.25;;;;;;;6.04;100.00;99728.44;1858593;77;21365;-66
2020/12/31 04:40:33;;;;;;;42.05;27.55;;;;;;;5.98;100.00;99732.16;1828452;78;21564;-65
2020/12/31 04:43:01;;;;;;;38.13;26.02;;;;;;;5.95;100.00;99734.87;1858640;77;20974;-66
2020/12/31 04:45:29;;;;;;;40.10;27.32;;;;;;;5.92;100.00;99731.57;1858657;77;21507;-65
2020/12/31 04:48:09;;;;;;;38.55;27.32;;;;;;;5.90;100.00;99739.84;1858539;77;21480;-65
2020/12/31 04:50:40;;;;;;;42.40;29.45;;;;;;;5.87;100.00;99730.44;1858731;77;20939;-65
2020/12/31 04:53:10;;;;;;;40.25;26.60;;;;;;;5.86;100.00;99738.25;1858706;77;21504;-65
2020/12/31 04:55:43;;;;;;;35.25;27.00;;;;;;;5.81;100.00;99738.44;1858607;77;20938;-66
2020/12/31 04:58:15;;;;;;;38.35;26.45;;;;;;;5.80;100.00;99735.91;1858552;77;21225;-65
2020/12/31 05:00:44;;;;;;;38.65;25.60;;;;;;;5.82;100.00;99743.15;1858470;77;20960;-66
2020/12/31 05:03:13;;;;;;;40.08;29.92;;;;;;;5.80;100.00;99738.05;1858494;77;20998;-65
2020/12/31 05:05:41;;;;;;;37.63;25.00;;;;;;;5.79;100.00;99738.95;1858422;77;21607;-65
2020/12/31 05:08:09;;;;;;;33.15;24.00;;;;;;;5.79;100.00;99738.11;1858624;77;21492;-66
2020/12/31 05:10:39;;;;;;;37.50;24.90;;;;;;;5.76;100.00;99735.20;1858525;77;22144;-66
2020/12/31 05:13:08;;;;;;;33.58;24.75;;;;;;;5.73;100.00;99735.77;1858349;77;20935;-69
2020/12/31 05:15:39;;;;;;;33.83;23.70;;;;;;;5.70;100.00;99738.87;1858627;77;20923;-67
2020/12/31 05:18:26;;;;;;;33.18;22.02;;;;;;;5.70;100.00;99740.16;1858457;77;20942;-69
2020/12/31 05:20:56;;;;;;;32.70;23.60;;;;;;;5.73;100.00;99748.69;1858717;77;26994;-67
2020/12/31 05:23:26;;;;;;;40.23;24.12;;;;;;;5.77;100.00;99756.25;1858537;76;22059;-67
2020/12/31 05:25:56;;;;;;;37.65;24.12;;;;;;;5.79;100.00;99755.74;1858450;77;20942;-68
2020/12/31 05:28:33;;;;;;;37.00;22.82;;;;;;;5.83;100.00;99757.30;1858580;77;21524;-66
2020/12/31 05:31:09;;;;;;;39.98;23.12;;;;;;;5.87;100.00;99760.15;1858644;77;21480;-69
2020/12/31 05:33:39;;;;;;;34.38;23.45;;;;;;;5.89;100.00;99758.38;1858696;77;20879;-67
2020/12/31 05:36:23;;;;;;;34.05;23.30;;;;;;;5.89;100.00;99762.25;1858749;77;21179;-66
2020/12/31 05:39:01;;;;;;;36.35;27.32;;;;;;;5.88;100.00;99767.45;1858815;77;21583;-66
2020/12/31 05:41:35;;;;;;;39.58;27.62;;;;;;;5.86;100.00;99768.80;1858923;77;21504;-70
2020/12/31 05:44:08;;;;;;;50.92;33.25;;;;;;;5.85;100.00;99771.45;1858833;77;20937;-69
2020/12/31 05:46:38;;;;;;;50.80;31.10;;;;;;;5.81;100.00;99779.77;1858920;77;20908;-70
2020/12/31 05:49:09;;;;;;;38.70;27.25;;;;;;;5.80;100.00;99783.26;1858940;77;22173;-70
2020/12/31 05:51:41;;;;;;;36.20;24.98;;;;;;;5.81;100.00;99790.56;1858913;77;20959;-70
2020/12/31 05:54:14;;;;;;;40.10;25.62;;;;;;;5.81;100.00;99794.44;1858741;77;21516;-69
2020/12/31 05:56:43;;;;;;;35.28;23.95;;;;;;;5.82;100.00;99805.16;1858716;77;21002;-71
2020/12/31 05:59:26;;;;;;;40.90;24.23;;;;;;;5.85;100.00;99808.47;1858695;77;21026;-69
2020/12/31 06:02:00;;;;;;;67.35;41.48;;;;;;;5.89;100.00;99807.92;1854261;76;21416;-70
2020/12/31 06:04:46;;;;;;;45.03;28.00;;;;;;;5.93;100.00;99819.38;1846733;76;20970;-71
2020/12/31 06:07:32;;;;;;;41.90;27.85;;;;;;;5.96;100.00;99809.36;1854212;76;21617;-67
2020/12/31 06:10:08;;;;;;;45.98;26.50;;;;;;;5.99;100.00;99811.37;1833956;76;21502;-70
2020/12/31 06:13:00;;;;;;;37.98;25.92;;;;;;;6.01;100.00;99814.70;1821185;77;21056;-68
2020/12/31 06:15:33;;;;;;;43.95;24.92;;;;;;;6.03;100.00;99814.19;1830247;76;22201;-71
2020/12/31 06:18:03;;;;;;;41.30;23.57;;;;;;;6.04;100.00;99821.48;1826603;76;21278;-74
2020/12/31 06:20:33;;;;;;;47.30;25.23;;;;;;;6.07;100.00;99821.37;1828688;77;21896;-69
2020/12/31 06:23:13;;;;;;;39.23;25.43;;;;;;;6.10;100.00;99811.36;1828456;76;22417;-70
2020/12/31 06:25:48;;;;;;;35.52;22.60;;;;;;;6.12;100.00;99816.02;1837089;77;21626;-69
2020/12/31 06:28:21;;;;;;;38.20;23.35;;;;;;;6.11;100.00;99813.88;1811086;78;21682;-69
2020/12/31 06:30:54;;;;;;;40.40;26.77;;;;;;;6.13;100.00;99814.66;1815727;77;21203;-70
2020/12/31 06:33:29;;;;;;;40.75;23.45;;;;;;;6.15;100.00;99822.34;1828091;77;21036;-68
2020/12/31 06:36:03;;;;;;;38.78;23.83;;;;;;;6.16;100.00;99819.70;1782523;78;21586;-68
2020/12/31 06:38:41;;;;;;;40.00;26.65;;;;;;;6.18;100.00;99819.64;1816098;78;21074;-67
2020/12/31 06:41:34;;;;;;;34.75;23.90;;;;;;;6.18;100.00;99821.77;1821197;77;21269;-68
2020/12/31 06:44:16;;;;;;;35.85;21.80;;;;;;;6.20;100.00;99826.43;1815075;77;20984;-68
2020/12/31 06:46:47;;;;;;;47.90;26.35;;;;;;;6.19;100.00;99827.78;1836178;77;21511;-67
2020/12/31 06:49:16;;;;;;;42.85;25.92;;;;;;;6.18;100.00;99828.23;1831342;77;21047;-68
2020/12/31 06:51:46;;;;;;;41.30;24.23;;;;;;;6.17;100.00;99837.34;1810269;77;21138;-69
2020/12/31 06:54:28;;;;;;;45.78;27.30;;;;;;;6.16;100.00;99835.66;1821751;77;22088;-69
2020/12/31 06:56:57;;;;;;;49.40;27.52;;;;;;;6.12;100.00;99828.94;1789167;79;21597;-68
2020/12/31 06:59:33;;;;;;;49.20;30.32;;;;;;;6.09;100.00;99831.20;1834803;77;22236;-68
2020/12/31 07:02:17;;;;;;;53.55;31.82;;;;;;;6.08;100.00;99832.55;1811651;78;21210;-67
2020/12/31 07:04:47;;;;;;;52.23;30.12;;;;;;;6.06;100.00;99835.64;1827108;77;21002;-69
2020/12/31 07:07:25;;;;;;;45.73;28.47;;;;;;;6.03;100.00;99829.70;1819330;78;21320;-71
2020/12/31 07:10:01;;;;;;;52.98;29.15;;;;;;;6.02;100.00;99831.89;1814477;78;21073;-69
2020/12/31 07:12:41;;;;;;;58.35;30.88;;;;;;;6.01;100.00;99831.50;1825088;77;20996;-73
2020/12/31 07:15:09;;;;;;;55.35;32.42;;;;;;;6.01;100.00;99830.66;1824434;77;21187;-70
2020/12/31 07:17:41;;;;;;;46.77;28.47;;;;;;;6.00;100.00;99829.82;1809606;78;21028;-70
2020/12/31 07:20:18;;;;;;;48.70;28.40;;;;;;;5.99;100.00;99820.42;1811229;78;21191;-69
2020/12/31 07:22:50;;;;;;;43.68;27.65;;;;;;;5.99;100.00;99824.30;1816471;78;21626;-72
2020/12/31 07:25:19;;;;;;;52.35;29.92;;;;;;;5.96;100.00;99823.13;1820429;77;21491;-70
2020/12/31 07:27:48;;;;;;;55.38;31.87;;;;;;;5.96;100.00;99831.33;1815080;78;21161;-73
2020/12/31 07:30:21;;;;;;;50.95;30.20;;;;;;;5.96;100.00;99832.63;1788042;77;22255;-69
2020/12/31 07:32:56;;;;;;;51.65;29.42;;;;;;;5.97;100.00;99830.42;1834581;77;21374;-71
2020/12/31 07:35:34;;;;;;;56.00;30.92;;;;;;;5.99;100.00;99836.38;1831076;77;21049;-70
2020/12/31 07:38:13;;;;;;;43.28;25.62;;;;;;;5.98;100.00;99834.24;1823072;77;21642;-68
2020/12/31 07:40:46;;;;;;;44.55;27.62;;;;;;;5.99;100.00;99841.55;1834431;76;20989;-68
2020/12/31 07:43:28;;;;;;;49.27;29.40;;;;;;;5.96;100.00;99839.92;1839472;76;21112;-71
2020/12/31 07:45:59;;;;;;;44.08;27.42;;;;;;;5.96;100.00;99842.95;1826877;77;22171;-72
2020/12/31 07:48:28;;;;;;;42.85;26.50;;;;;;;5.95;100.00;99848.58;1841373;76;20995;-69
2020/12/31 07:51:01;;;;;;;60.63;32.70;;;;;;;5.91;100.00;99848.76;1835075;77;21618;-71
2020/12/31 07:53:30;;;;;;;46.23;28.80;;;;;;;5.89;100.00;99850.11;1823169;77;21031;-69
2020/12/31 07:56:01;;;;;;;50.20;31.10;;;;;;;5.91;100.00;99851.34;1809795;78;21068;-70
2020/12/31 07:58:29;;;;;;;51.50;28.77;;;;;;;5.90;100.00;99850.95;1788399;78;21378;-70
2020/12/31 08:01:05;;;;;;;54.88;29.80;;;;;;;5.88;100.00;99851.43;1812583;78;20961;-70
2020/12/31 08:03:34;;;;;;;59.40;33.35;;;;;;;5.86;100.00;99846.32;1840414;78;21033;-70
2020/12/31 08:06:07;;;;;;;69.92;35.85;;;;;;;5.87;100.00;99848.00;1836788;77;20995;-70
2020/12/31 08:08:35;;;;;;;49.90;28.85;;;;;;;5.87;100.00;99851.04;1830131;77;21597;-70
2020/12/31 08:11:13;;;;;;;49.42;29.32;;;;;;;5.87;100.00;99854.91;1822650;77;21136;-71
2020/12/31 08:13:43;;;;;;;50.95;29.45;;;;;;;5.83;100.00;99846.44;1816910;77;20985;-70
2020/12/31 08:16:16;;;;;;;47.90;27.20;;;;;;;5.81;100.00;99844.37;1787883;77;22363;-70
2020/12/31 08:18:44;;;;;;;43.70;27.75;;;;;;;5.77;100.00;99845.39;1825290;77;21017;-68
2020/12/31 08:21:13;;;;;;;40.52;24.85;;;;;;;5.78;100.00;99846.23;1829925;78;21002;-70
2020/12/31 08:23:41;;;;;;;39.98;24.43;;;;;;;5.77;100.00;99847.13;1831965;77;21196;-71
2020/12/31 08:26:10;;;;;;;34.65;21.42;;;;;;;5.77;100.00;99847.13;1822221;78;21620;-70
2020/12/31 08:28:45;;;;;;;40.45;23.35;;;;;;;5.76;100.00;99845.45;1810783;78;22124;-70
2020/12/31 08:31:15;;;;;;;46.85;28.40;;;;;;;5.75;100.00;99854.09;1821720;78;21056;-71
2020/12/31 08:33:44;;;;;;;46.05;26.95;;;;;;;5.73;100.00;99848.15;1842921;77;21002;-70
2020/12/31 08:36:23;;;;;;;38.65;26.12;;;;;;;5.72;100.00;99850.34;1835865;76;21592;-69
2020/12/31 08:38:58;;;;;;;41.13;25.08;;;;;;;5.72;100.00;99856.34;1818987;77;21050;-72
2020/12/31 08:41:26;;;;;;;40.12;25.57;;;;;;;5.72;100.00;99861.52;1809695;79;20980;-69
2020/12/31 08:43:55;;;;;;;33.85;22.62;;;;;;;5.73;100.00;99862.36;1821365;77;21113;-72
2020/12/31 08:46:25;;;;;;;36.53;22.90;;;;;;;5.72;100.00;99864.09;1836255;77;21003;-73
2020/12/31 08:48:54;;;;;;;39.78;25.82;;;;;;;5.73;100.00;99865.78;1824048;78;21506;-74
2020/12/31 08:51:30;;;;;;;37.40;23.77;;;;;;;5.72;100.00;99862.80;1824737;78;21078;-72
2020/12/31 08:54:00;;;;;;;37.17;24.72;;;;;;;5.72;100.00;99871.01;1805643;77;21025;-70
2020/12/31 08:56:31;;;;;;;42.93;28.15;;;;;;;5.70;100.00;99874.48;1827164;78;20927;-67
2020/12/31 08:59:09;;;;;;;40.45;27.40;;;;;;;5.68;100.00;99873.70;1847532;77;21617;-67
2020/12/31 09:01:39;;;;;;;38.25;25.02;;;;;;;5.67;100.00;99864.27;1794464;77;21207;-69
2020/12/31 09:04:20;;;;;;;41.33;26.97;;;;;;;5.69;100.00;99870.67;1820260;77;21075;-66
2020/12/31 09:06:57;;;;;;;37.90;25.70;;;;;;;5.70;100.00;99873.20;1835903;76;21590;-68
2020/12/31 09:09:28;;;;;;;43.15;25.88;;;;;;;5.73;100.00;99870.11;1826966;77;22193;-70
2020/12/31 09:12:04;;;;;;;35.20;23.98;;;;;;;5.74;100.00;99871.80;1848243;77;20990;-69
2020/12/31 09:14:37;;;;;;;36.42;24.45;;;;;;;5.74;100.00;99871.80;1835593;77;21361;-69
2020/12/31 09:17:24;;;;;;;35.13;24.37;;;;;;;5.72;100.00;99871.01;1844543;77;21020;-71
2020/12/31 09:19:55;;;;;;;38.28;24.10;;;;;;;5.70;100.00;99870.61;1812989;78;21602;-68
2020/12/31 09:22:26;;;;;;;34.65;23.75;;;;;;;5.70;100.00;99866.73;1824942;77;21064;-69
2020/12/31 09:24:55;;;;;;;37.20;24.60;;;;;;;5.68;100.00;99865.12;1826698;77;22143;-70
2020/12/31 09:27:26;;;;;;;34.30;23.70;;;;;;;5.61;100.00;99859.34;1827528;77;22702;-69
2020/12/31 09:30:01;;;;;;;38.58;23.87;;;;;;;5.57;100.00;99860.39;1825667;77;21358;-67
2020/12/31 09:32:30;;;;;;;36.20;25.15;;;;;;;5.54;100.00;99865.67;1835696;77;21633;-72
2020/12/31 09:35:02;;;;;;;47.55;27.85;;;;;;;5.51;100.00;99861.91;1835214;77;22219;-69
2020/12/31 09:37:52;;;;;;;40.33;25.88;;;;;;;5.50;100.00;99849.05;1833049;77;21152;-69
2020/12/31 09:40:21;;;;;;;44.27;27.02;;;;;;;5.46;100.00;99856.52;1829939;77;21534;-68
2020/12/31 09:42:51;;;;;;;44.65;27.82;;;;;;;5.41;100.00;99859.73;1827960;77;21033;-72
2020/12/31 09:45:20;;;;;;;48.78;27.58;;;;;;;5.37;100.00;99853.84;1827756;77;21008;-70
2020/12/31 09:47:48;;;;;;;46.25;29.85;;;;;;;5.36;100.00;99847.83;1804489;78;20923;-71
2020/12/31 09:50:16;;;;;;;48.20;27.60;;;;;;;5.34;100.00;99848.34;1857129;77;21003;-71
2020/12/31 09:52:45;;;;;;;44.90;26.20;;;;;;;5.35;100.00;99836.27;1855845;77;21187;-71
2020/12/31 09:55:16;;;;;;;42.25;24.87;;;;;;;5.35;100.00;99839.69;1829680;77;21072;-70
2020/12/31 09:57:44;;;;;;;55.73;31.00;;;;;;;5.35;100.00;99840.98;1777232;78;21044;-71
2020/12/31 10:00:12;;;;;;;43.35;28.38;;;;;;;5.35;100.00;99836.27;1840375;77;21005;-71
2020/12/31 10:02:41;;;;;;;51.10;31.90;;;;;;;5.35;100.00;99834.53;1835765;77;20982;-70
2020/12/31 10:05:09;;;;;;;58.63;35.75;;;;;;;5.35;100.00;99833.69;1835993;77;21195;-70
2020/12/31 10:07:37;;;;;;;43.98;26.80;;;;;;;5.35;100.00;99838.85;1794433;78;22584;-72
2020/12/31 10:10:08;;;;;;;46.13;26.42;;;;;;;5.36;100.00;99829.76;1813261;77;20993;-69
2020/12/31 10:12:36;;;;;;;37.65;24.40;;;;;;;5.36;100.00;99834.08;1827763;77;21618;-69
2020/12/31 10:15:05;;;;;;;44.42;29.77;;;;;;;5.36;100.00;99835.38;1821102;77;21226;-68
2020/12/31 10:17:35;;;;;;;45.23;26.05;;;;;;;5.36;100.00;99829.76;1816853;77;21360;-67
2020/12/31 10:20:05;;;;;;;40.67;26.27;;;;;;;5.36;100.00;99831.50;1814226;78;21007;-69
2020/12/31 10:22:35;;;;;;;47.70;32.50;;;;;;;5.37;100.00;99835.77;1824180;77;22422;-68
2020/12/31 10:25:03;;;;;;;42.35;24.37;;;;;;;5.39;100.00;99838.28;1811375;78;21041;-69
2020/12/31 10:27:32;;;;;;;38.53;25.37;;;;;;;5.40;100.00;99833.52;1820421;77;21566;-69
2020/12/31 10:30:00;;;;;;;39.55;23.57;;;;;;;5.39;100.00;99830.54;1820231;77;21592;-71
2020/12/31 10:32:28;;;;;;;58.83;30.17;;;;;;;5.39;100.00;99837.84;1819208;78;21075;-69
2020/12/31 10:34:57;;;;;;;45.43;30.62;;;;;;;5.40;100.00;99838.23;1817534;77;21001;-68
2020/12/31 10:37:27;;;;;;;44.35;29.12;;;;;;;5.40;100.00;99827.06;1845022;77;21060;-70
2020/12/31 10:39:55;;;;;;;49.30;27.00;;;;;;;5.44;100.00;99826.05;1812001;78;21187;-71
2020/12/31 10:42:24;;;;;;;45.20;26.77;;;;;;;5.46;100.00;99829.41;1812725;77;21335;-69
2020/12/31 10:44:56;;;;;;;51.53;31.33;;;;;;;5.45;100.00;99822.56;1824944;78;21145;-71
2020/12/31 10:47:22;;;;;;;42.78;26.80;;;;;;;5.46;100.00;99821.22;1825212;78;21663;-69
2020/12/31 10:49:50;;;;;;;50.60;30.75;;;;;;;5.47;100.00;99819.02;1825336;78;21657;-69
2020/12/31 10:52:18;;;;;;;42.38;26.80;;;;;;;5.47;100.00;99816.44;1811415;78;21544;-69
2020/12/31 10:54:47;;;;;;;40.55;26.25;;;;;;;5.49;100.00;99813.80;1825996;78;21202;-69
2020/12/31 10:57:17;;;;;;;43.55;27.00;;;;;;;5.50;100.00;99814.19;1815879;77;21036;-69
2020/12/31 10:59:46;;;;;;;51.37;28.57;;;;;;;5.50;100.00;99811.16;1820783;77;21032;-68
2020/12/31 11:02:14;;;;;;;56.98;33.25;;;;;;;5.52;100.00;99805.94;1831826;77;21025;-68
2020/12/31 11:04:43;;;;;;;43.75;28.27;;;;;;;5.54;100.00;99805.43;1859234;77;21021;-69
2020/12/31 11:07:11;;;;;;;42.17;27.90;;;;;;;5.55;100.00;99800.20;1823602;77;21191;-67
2020/12/31 11:09:40;;;;;;;41.77;27.48;;;;;;;5.57;100.00;99797.11;1857676;77;20941;-68
2020/12/31 11:12:08;;;;;;;56.42;32.48;;;;;;;5.59;100.00;99795.31;1851751;76;21542;-69
2020/12/31 11:14:39;;;;;;;41.13;26.87;;;;;;;5.60;100.00;99793.53;1828312;76;21577;-68
2020/12/31 11:17:07;;;;;;;40.95;26.77;;;;;;;5.59;100.00;99795.77;1819822;77;21049;-67
2020/12/31 11:19:36;;;;;;;45.78;26.68;;;;;;;5.59;100.00;99790.14;1816970;78;21237;-68
2020/12/31 11:22:05;;;;;;;45.45;26.87;;;;;;;5.60;100.00;99793.09;1824344;78;21038;-67
2020/12/31 11:24:33;;;;;;;52.93;29.57;;;;;;;5.62;100.00;99791.73;1825624;77;21025;-68
2020/12/31 11:27:02;;;;;;;49.42;27.25;;;;;;;5.63;100.00;99789.55;1798803;78;20989;-71
2020/12/31 11:29:31;;;;;;;41.95;25.43;;;;;;;5.63;100.00;99790.38;1833284;77;21026;-67
2020/12/31 11:32:03;;;;;;;37.78;23.95;;;;;;;5.64;100.00;99789.94;1812358;78;23116;-67
2020/12/31 11:34:31;;;;;;;42.08;27.22;;;;;;;5.65;100.00;99792.91;1860729;77;21517;-68